createdAt,value
2023-10-29T00:00:00.869Z,99787.28
2023-10-29T00:02:28.127Z,99799.50
2023-10-29T00:04:55.091Z,99806.38
2023-10-29T00:07:21.720Z,99811.44
2023-10-29T00:09:50.849Z,99801.59
2023-10-29T00:12:17.596Z,99806.66
2023-10-29T00:14:49.916Z,99799.78
2023-10-29T00:17:17.726Z,99805.66
2023-10-29T00:19:46.769Z,99810.78
2023-10-29T00:22:16.760Z,99805.69
2023-10-29T00:24:43.457Z,99799.66
2023-10-29T00:27:13.633Z,99797.06
2023-10-29T00:29:42.987Z,99801.38
2023-10-29T00:32:12.218Z,99804.72
2023-10-29T00:34:38.852Z,99808.94
2023-10-29T00:37:05.497Z,99811.63
2023-10-29T00:39:34.721Z,99800.44
2023-10-29T00:42:03.832Z,99804.03
2023-10-29T00:44:30.530Z,99798.91
2023-10-29T00:46:57.111Z,99790.41
2023-10-29T00:49:24.700Z,99795.53
2023-10-29T00:51:51.861Z,99793.03
2023-10-29T00:54:20.781Z,99790.41
2023-10-29T00:56:47.582Z,99792.00
2023-10-29T00:59:15.915Z,99796.09
2023-10-29T01:01:42.691Z,99791.78
2023-10-29T01:04:09.670Z,99788.47
2023-10-29T01:06:41.996Z,99791.88
2023-10-29T01:09:12.130Z,99786.59
2023-10-29T01:11:41.074Z,99786.53
2023-10-29T01:14:07.907Z,99802.03
2023-10-29T01:16:34.504Z,99806.28
2023-10-29T01:19:01.102Z,99807.28
2023-10-29T01:21:28.402Z,99807.44
2023-10-29T01:23:57.382Z,99804.81
2023-10-29T01:26:24.175Z,99804.03
2023-10-29T01:28:50.845Z,99802.22
2023-10-29T01:31:17.488Z,99797.84
2023-10-29T01:33:44.154Z,99806.50
2023-10-29T01:36:13.191Z,99805.94
2023-10-29T01:38:42.542Z,99803.31
2023-10-29T01:41:15.311Z,99810.44
2023-10-29T01:43:41.929Z,99806.16
2023-10-29T01:46:11.192Z,99815.75
2023-10-29T01:48:40.196Z,99815.69
2023-10-29T01:51:10.738Z,99807.19
2023-10-29T01:53:37.441Z,99800.31
2023-10-29T01:56:08.269Z,99806.47
2023-10-29T01:58:37.095Z,99812.59
2023-10-29T02:01:10.067Z,99812.50
2023-10-29T02:03:39.926Z,99822.50
2023-10-29T02:06:19.614Z,99820.88
2023-10-29T02:08:49.210Z,99828.66
2023-10-29T02:11:18.936Z,99822.16
2023-10-29T02:13:45.567Z,99827.13
2023-10-29T02:16:12.354Z,99836.66
2023-10-29T02:18:41.699Z,99842.94
2023-10-29T02:21:08.767Z,99837.97
2023-10-29T02:23:35.628Z,99840.47
2023-10-29T02:26:02.506Z,99846.09
2023-10-29T02:28:29.142Z,99849.00
2023-10-29T02:30:55.850Z,99834.56
2023-10-29T02:33:22.552Z,99830.19
2023-10-29T02:35:50.444Z,99832.53
2023-10-29T02:38:19.518Z,99829.72
2023-10-29T02:40:48.576Z,99822.72
2023-10-29T02:43:15.285Z,99818.19
2023-10-29T02:45:44.335Z,99838.22
2023-10-29T02:48:11.116Z,99836.63
2023-10-29T02:50:42.701Z,99830.19
2023-10-29T02:53:09.436Z,99837.25
2023-10-29T02:55:36.071Z,99839.72
2023-10-29T02:58:02.986Z,99837.41
2023-10-29T03:00:31.997Z,99837.59
2023-10-29T03:02:58.844Z,99830.06
2023-10-29T03:05:28.402Z,99830.28
2023-10-29T03:07:58.065Z,99831.44
2023-10-29T03:10:25.164Z,99840.31
2023-10-29T03:12:51.856Z,99832.06
2023-10-29T03:15:18.668Z,99836.53
2023-10-29T03:17:45.468Z,99835.41
2023-10-29T03:20:17.832Z,99830.09
2023-10-29T03:22:46.942Z,99833.53
2023-10-29T03:25:13.681Z,99834.28
2023-10-29T03:27:40.275Z,99835.28
2023-10-29T03:30:09.286Z,99845.16
2023-10-29T03:32:35.976Z,99841.78
2023-10-29T03:35:05.256Z,99842.94
2023-10-29T03:37:34.138Z,99841.53
2023-10-29T03:40:03.615Z,99846.34
2023-10-29T03:42:30.220Z,99844.09
2023-10-29T03:44:57.041Z,99842.81
2023-10-29T03:47:23.766Z,99847.34
2023-10-29T03:49:50.491Z,99840.91
2023-10-29T03:52:17.157Z,99843.78
2023-10-29T03:54:44.159Z,99847.91
2023-10-29T03:57:19.950Z,99845.41
2023-10-29T03:59:49.535Z,99848.03
2023-10-29T04:02:16.204Z,99831.94
2023-10-29T04:04:45.815Z,99834.88
2023-10-29T04:07:17.360Z,99829.94
2023-10-29T04:09:44.450Z,99829.69
2023-10-29T04:12:12.012Z,99828.22
2023-10-29T04:14:43.915Z,99831.94
2023-10-29T04:17:12.896Z,99827.69
2023-10-29T04:19:45.673Z,99833.16
2023-10-29T04:22:12.351Z,99836.72
2023-10-29T04:24:39.365Z,99838.47
2023-10-29T04:27:06.419Z,99843.03
2023-10-29T04:29:38.028Z,99839.56
2023-10-29T04:32:04.952Z,99838.47
2023-10-29T04:34:31.563Z,99841.34
2023-10-29T04:37:00.839Z,99842.44
2023-10-29T04:39:27.967Z,99840.72
2023-10-29T04:41:54.675Z,99830.69
2023-10-29T04:44:21.367Z,99833.28
2023-10-29T04:46:47.949Z,99835.81
2023-10-29T04:49:16.607Z,99828.22
2023-10-29T04:51:45.533Z,99833.50
2023-10-29T04:54:15.000Z,99836.19
2023-10-29T04:56:41.654Z,99838.00
2023-10-29T04:59:10.735Z,99841.69
2023-10-29T05:01:37.448Z,99840.91
2023-10-29T05:04:04.293Z,99839.03
2023-10-29T05:06:31.070Z,99841.84
2023-10-29T05:08:57.858Z,99834.03
2023-10-29T05:11:26.976Z,99837.56
2023-10-29T05:13:57.893Z,99833.28
2023-10-29T05:16:24.545Z,99835.91
2023-10-29T05:18:51.246Z,99837.72
2023-10-29T05:21:21.741Z,99847.47
2023-10-29T05:23:48.452Z,99848.53
2023-10-29T05:26:15.530Z,99850.25
2023-10-29T05:28:42.359Z,99850.13
2023-10-29T05:31:09.045Z,99850.88
2023-10-29T05:33:39.211Z,99854.34
2023-10-29T05:36:06.103Z,99860.53
2023-10-29T05:38:35.092Z,99852.13
2023-10-29T05:41:04.140Z,99852.06
2023-10-29T05:43:30.725Z,99856.38
2023-10-29T05:45:59.946Z,99870.91
2023-10-29T05:48:29.027Z,99869.13
2023-10-29T05:50:55.822Z,99871.72
2023-10-29T05:53:22.554Z,99866.88
2023-10-29T05:55:49.617Z,99864.41
2023-10-29T05:58:16.355Z,99863.53
2023-10-29T06:00:46.200Z,99871.34
2023-10-29T06:03:12.985Z,99881.16
2023-10-29T06:05:39.693Z,99866.34
2023-10-29T06:08:06.526Z,99873.25
2023-10-29T06:10:33.234Z,99869.75
2023-10-29T06:13:02.688Z,99875.78
2023-10-29T06:15:33.945Z,99875.88
2023-10-29T06:18:01.317Z,99890.09
2023-10-29T06:20:28.575Z,99892.09
2023-10-29T06:22:55.356Z,99893.09
2023-10-29T06:25:24.491Z,99895.16
2023-10-29T06:27:55.733Z,99895.28
2023-10-29T06:30:27.524Z,99892.75
2023-10-29T06:32:54.958Z,99898.91
2023-10-29T06:35:24.589Z,99903.50
2023-10-29T06:37:51.311Z,99892.28
2023-10-29T06:40:18.082Z,99902.72
2023-10-29T06:42:44.834Z,99901.16
2023-10-29T06:45:15.349Z,99903.06
2023-10-29T06:47:44.439Z,99898.81
2023-10-29T06:50:11.357Z,99909.31
2023-10-29T06:52:38.080Z,99904.22
2023-10-29T06:55:04.983Z,99910.50
2023-10-29T06:57:31.600Z,99919.34
2023-10-29T06:59:59.159Z,99920.34
2023-10-29T07:02:28.712Z,99927.34
2023-10-29T07:04:59.780Z,99931.50
2023-10-29T07:07:30.548Z,99929.00
2023-10-29T07:09:59.286Z,99922.22
2023-10-29T07:12:26.028Z,99923.16
2023-10-29T07:14:55.170Z,99924.97
2023-10-29T07:17:27.262Z,99931.16
2023-10-29T07:19:53.904Z,99929.59
2023-10-29T07:22:23.761Z,99920.97
2023-10-29T07:24:50.550Z,99922.00
2023-10-29T07:27:19.633Z,99922.13
2023-10-29T07:29:46.343Z,99921.44
2023-10-29T07:32:16.012Z,99919.00
2023-10-29T07:34:45.415Z,99917.53
2023-10-29T07:37:13.624Z,99920.06
2023-10-29T07:39:42.594Z,99907.06
2023-10-29T07:42:09.335Z,99908.97
2023-10-29T07:44:36.287Z,99903.84
2023-10-29T07:47:09.665Z,99898.72
2023-10-29T07:49:38.505Z,99898.81
2023-10-29T07:52:06.706Z,99905.88
2023-10-29T07:54:35.722Z,99899.88
2023-10-29T07:57:04.941Z,99899.06
2023-10-29T07:59:32.769Z,99900.78
2023-10-29T08:01:59.503Z,99901.75
2023-10-29T08:04:29.624Z,99904.31
2023-10-29T08:06:58.776Z,99901.72
2023-10-29T08:09:25.369Z,99907.66
2023-10-29T08:11:55.056Z,99905.03
2023-10-29T08:14:21.814Z,99901.59
2023-10-29T08:16:48.691Z,99909.47
2023-10-29T08:19:17.833Z,99911.09
2023-10-29T08:21:44.446Z,99910.38
2023-10-29T08:24:11.201Z,99915.66
2023-10-29T08:26:40.163Z,99922.50
2023-10-29T08:29:09.229Z,99921.59
2023-10-29T08:31:36.974Z,99920.66
2023-10-29T08:34:11.541Z,99913.72
2023-10-29T08:36:40.674Z,99913.72
2023-10-29T08:39:07.356Z,99914.41
2023-10-29T08:41:34.122Z,99910.19
2023-10-29T08:44:00.840Z,99900.78
2023-10-29T08:46:29.887Z,99913.75
2023-10-29T08:49:01.741Z,99911.16
2023-10-29T08:51:31.496Z,99908.63
2023-10-29T08:53:58.705Z,99911.13
2023-10-29T08:56:25.698Z,99907.56
2023-10-29T08:58:52.481Z,99918.03
2023-10-29T09:01:19.210Z,99912.75
2023-10-29T09:03:48.327Z,99908.44
2023-10-29T09:06:15.890Z,99906.88
2023-10-29T09:08:42.647Z,99915.69
2023-10-29T09:11:15.820Z,99910.41
2023-10-29T09:13:44.973Z,99906.13
2023-10-29T09:16:12.015Z,99904.47
2023-10-29T09:18:42.093Z,99916.78
2023-10-29T09:21:11.113Z,99914.19
2023-10-29T09:23:40.221Z,99906.41
2023-10-29T09:26:08.682Z,99899.47
2023-10-29T09:28:35.434Z,99899.53
2023-10-29T09:31:02.156Z,99899.66
2023-10-29T09:33:32.234Z,99884.94
2023-10-29T09:35:58.953Z,99885.91
2023-10-29T09:38:28.156Z,99892.13
2023-10-29T09:40:56.768Z,99890.38
2023-10-29T09:43:27.927Z,99884.28
2023-10-29T09:45:57.012Z,99884.28
2023-10-29T09:48:24.646Z,99875.53
2023-10-29T09:50:51.343Z,99870.28
2023-10-29T09:53:18.043Z,99869.41
2023-10-29T09:55:44.730Z,99863.25
2023-10-29T09:58:11.428Z,99870.16
2023-10-29T10:00:38.133Z,99869.38
2023-10-29T10:03:05.384Z,99862.41
2023-10-29T10:05:35.357Z,99859.69
2023-10-29T10:08:02.342Z,99851.81
2023-10-29T10:10:39.234Z,99856.09
2023-10-29T10:13:06.325Z,99851.59
2023-10-29T10:15:33.334Z,99845.44
2023-10-29T10:18:08.798Z,99848.09
2023-10-29T10:20:38.403Z,99838.53
2023-10-29T10:23:12.628Z,99841.09
2023-10-29T10:25:39.426Z,99830.41
2023-10-29T10:28:06.540Z,99837.25
2023-10-29T10:30:33.296Z,99826.47
2023-10-29T10:33:09.767Z,99828.88
2023-10-29T10:35:43.822Z,99823.22
2023-10-29T10:38:10.861Z,99808.50
2023-10-29T10:40:42.368Z,99816.66
2023-10-29T10:43:09.205Z,99805.56
2023-10-29T10:45:37.101Z,99804.00
2023-10-29T10:48:07.555Z,99802.56
2023-10-29T10:50:35.794Z,99805.41
2023-10-29T10:53:02.853Z,99809.50
2023-10-29T10:55:47.465Z,99807.53
2023-10-29T10:58:19.349Z,99799.53
2023-10-29T11:00:46.317Z,99802.28
2023-10-29T11:03:29.087Z,99801.47
2023-10-29T11:05:59.613Z,99792.59
2023-10-29T11:08:28.745Z,99799.69
2023-10-29T11:10:55.571Z,99800.16
2023-10-29T11:13:22.396Z,99787.78
2023-10-29T11:15:51.696Z,99791.78
2023-10-29T11:18:34.372Z,99786.41
2023-10-29T11:21:01.892Z,99804.91
2023-10-29T11:23:29.243Z,99791.34
2023-10-29T11:26:14.632Z,99782.38
2023-10-29T11:28:46.899Z,99779.91
2023-10-29T11:31:17.009Z,99792.53
2023-10-29T11:33:45.015Z,99796.47
2023-10-29T11:36:37.011Z,99790.16
2023-10-29T11:39:16.363Z,99785.59
2023-10-29T11:41:46.267Z,99780.44
2023-10-29T11:44:19.228Z,99800.69
2023-10-29T11:47:04.203Z,99777.53
2023-10-29T11:49:31.358Z,99782.63
2023-10-29T11:52:04.466Z,99785.06
2023-10-29T11:54:33.469Z,99771.47
2023-10-29T11:57:00.843Z,99779.06
2023-10-29T11:59:32.158Z,99788.09
2023-10-29T12:01:59.185Z,99771.13
2023-10-29T12:04:34.494Z,99755.13
2023-10-29T12:07:01.538Z,99760.63
2023-10-29T12:09:34.213Z,99743.41
2023-10-29T12:12:09.822Z,99754.91
2023-10-29T12:14:44.668Z,99743.53
2023-10-29T12:17:15.105Z,99751.88
2023-10-29T12:19:43.161Z,99748.81
2023-10-29T12:22:16.677Z,99747.41
2023-10-29T12:24:43.585Z,99755.75
2023-10-29T12:27:12.930Z,99738.50
2023-10-29T12:29:39.584Z,99742.38
2023-10-29T12:32:08.752Z,99758.69
2023-10-29T12:34:52.239Z,99736.53
2023-10-29T12:37:23.131Z,99753.31
2023-10-29T12:39:50.787Z,99731.84
2023-10-29T12:42:17.636Z,99729.63
2023-10-29T12:44:54.517Z,99731.00
2023-10-29T12:47:23.855Z,99721.75
2023-10-29T12:50:03.796Z,99721.41
2023-10-29T12:52:33.688Z,99719.84
2023-10-29T12:55:00.444Z,99722.16
2023-10-29T12:57:29.716Z,99704.91
2023-10-29T12:59:58.626Z,99708.38
2023-10-29T13:02:28.648Z,99712.13
2023-10-29T13:04:55.595Z,99699.44
2023-10-29T13:07:23.395Z,99728.97
2023-10-29T13:09:52.500Z,99727.09
2023-10-29T13:12:19.286Z,99719.50
2023-10-29T13:14:47.948Z,99733.13
2023-10-29T13:17:17.829Z,99720.97
2023-10-29T13:19:44.664Z,99718.69
2023-10-29T13:22:11.500Z,99727.06
2023-10-29T13:24:40.680Z,99734.22
2023-10-29T13:27:09.825Z,99725.19
2023-10-29T13:29:38.827Z,99720.91
2023-10-29T13:32:07.361Z,99718.78
2023-10-29T13:34:36.361Z,99729.03
2023-10-29T13:37:03.044Z,99726.22
2023-10-29T13:39:29.821Z,99712.22
2023-10-29T13:41:58.775Z,99723.25
2023-10-29T13:44:28.510Z,99727.41
2023-10-29T13:46:55.173Z,99720.84
2023-10-29T13:49:22.230Z,99718.19
2023-10-29T13:51:49.220Z,99717.25
2023-10-29T13:54:15.939Z,99714.53
2023-10-29T13:56:42.654Z,99716.41
2023-10-29T13:59:09.327Z,99719.56
2023-10-29T14:01:38.862Z,99718.09
2023-10-29T14:04:05.665Z,99731.84
2023-10-29T14:06:33.007Z,99716.16
2023-10-29T14:09:02.290Z,99727.03
2023-10-29T14:11:29.065Z,99717.94
2023-10-29T14:13:57.264Z,99716.59
2023-10-29T14:16:37.496Z,99719.66
2023-10-29T14:19:04.616Z,99725.09
2023-10-29T14:21:31.265Z,99709.31
2023-10-29T14:24:00.584Z,99718.38
2023-10-29T14:26:27.706Z,99715.75
2023-10-29T14:28:56.906Z,99721.34
2023-10-29T14:31:26.136Z,99709.25
2023-10-29T14:33:53.067Z,99719.00
2023-10-29T14:36:22.108Z,99721.19
2023-10-29T14:38:48.852Z,99721.47
2023-10-29T14:41:18.793Z,99711.19
2023-10-29T14:43:45.506Z,99710.97
2023-10-29T14:46:14.816Z,99719.19
2023-10-29T14:48:42.091Z,99713.34
2023-10-29T14:51:09.579Z,99717.09
2023-10-29T14:53:38.747Z,99711.03
2023-10-29T14:56:06.587Z,99719.91
2023-10-29T14:58:35.536Z,99720.91
2023-10-29T15:01:06.118Z,99719.25
2023-10-29T15:03:33.373Z,99724.66
2023-10-29T15:06:00.425Z,99721.34
2023-10-29T15:08:27.114Z,99723.09
2023-10-29T15:10:53.771Z,99726.69
2023-10-29T15:13:25.831Z,99717.13
2023-10-29T15:15:52.564Z,99720.53
2023-10-29T15:18:19.669Z,99720.53
2023-10-29T15:21:00.194Z,99717.97
2023-10-29T15:23:28.191Z,99721.50
2023-10-29T15:26:00.208Z,99728.66
2023-10-29T15:28:26.938Z,99734.97
2023-10-29T15:30:53.615Z,99727.06
2023-10-29T15:33:20.771Z,99717.56
2023-10-29T15:35:49.895Z,99728.06
2023-10-29T15:38:16.490Z,99716.75
2023-10-29T15:40:43.365Z,99718.50
2023-10-29T15:43:10.389Z,99715.81
2023-10-29T15:45:39.390Z,99726.34
2023-10-29T15:48:09.109Z,99725.44
2023-10-29T15:50:36.365Z,99727.16
2023-10-29T15:53:06.138Z,99733.38
2023-10-29T15:55:33.691Z,99731.59
2023-10-29T15:58:00.376Z,99740.44
2023-10-29T16:00:29.657Z,99745.72
2023-10-29T16:02:58.449Z,99749.38
2023-10-29T16:05:28.806Z,99747.66
2023-10-29T16:07:55.468Z,99751.31
2023-10-29T16:10:24.464Z,99758.38
2023-10-29T16:12:51.082Z,99762.81
2023-10-29T16:15:17.850Z,99761.94
2023-10-29T16:17:44.662Z,99762.03
2023-10-29T16:20:11.419Z,99766.41
2023-10-29T16:22:38.096Z,99766.34
2023-10-29T16:25:09.813Z,99758.50
2023-10-29T16:27:36.972Z,99766.41
2023-10-29T16:30:04.149Z,99771.69
2023-10-29T16:32:31.031Z,99767.28
2023-10-29T16:34:58.899Z,99769.06
2023-10-29T16:37:27.845Z,99775.19
2023-10-29T16:39:54.528Z,99776.88
2023-10-29T16:42:21.147Z,99773.38
2023-10-29T16:44:49.993Z,99773.38
2023-10-29T16:47:16.761Z,99773.41
2023-10-29T16:49:50.253Z,99776.00
2023-10-29T16:52:21.714Z,99775.19
2023-10-29T16:54:48.427Z,99785.69
2023-10-29T16:57:17.482Z,99779.59
2023-10-29T16:59:46.867Z,99782.28
2023-10-29T17:02:16.475Z,99784.09
2023-10-29T17:04:43.170Z,99784.09
2023-10-29T17:07:10.627Z,99782.41
2023-10-29T17:09:40.400Z,99790.28
2023-10-29T17:12:09.716Z,99790.34
2023-10-29T17:14:36.656Z,99785.09
2023-10-29T17:17:04.564Z,99792.13
2023-10-29T17:19:31.180Z,99790.34
2023-10-29T17:22:00.157Z,99798.25
2023-10-29T17:24:27.387Z,99798.22
2023-10-29T17:26:54.717Z,99808.78
2023-10-29T17:29:23.737Z,99805.28
2023-10-29T17:31:51.129Z,99803.50
2023-10-29T17:34:20.563Z,99803.53
2023-10-29T17:36:47.553Z,99809.63
2023-10-29T17:39:19.984Z,99804.41
2023-10-29T17:41:47.033Z,99797.44
2023-10-29T17:44:13.604Z,99797.50
2023-10-29T17:46:40.352Z,99800.13
2023-10-29T17:49:07.119Z,99801.00
2023-10-29T17:51:34.212Z,99801.91
2023-10-29T17:54:01.044Z,99800.19
2023-10-29T17:56:30.315Z,99809.88
2023-10-29T17:58:57.277Z,99792.41
2023-10-29T18:01:24.182Z,99801.16
2023-10-29T18:03:55.021Z,99799.41
2023-10-29T18:06:23.649Z,99798.53
2023-10-29T18:08:50.818Z,99804.63
2023-10-29T18:11:19.242Z,99803.72
2023-10-29T18:13:46.329Z,99797.63
2023-10-29T18:16:13.082Z,99809.84
2023-10-29T18:18:42.253Z,99802.88
2023-10-29T18:21:14.791Z,99809.88
2023-10-29T18:23:41.581Z,99814.22
2023-10-29T18:26:08.334Z,99821.22
2023-10-29T18:28:34.958Z,99818.63
2023-10-29T18:31:09.425Z,99817.75
2023-10-29T18:33:36.408Z,99814.28
2023-10-29T18:36:09.755Z,99805.56
2023-10-29T18:38:36.806Z,99819.56
2023-10-29T18:41:10.354Z,99817.81
2023-10-29T18:43:37.493Z,99823.94
2023-10-29T18:46:05.431Z,99816.97
2023-10-29T18:48:32.306Z,99822.19
2023-10-29T18:51:05.238Z,99815.22
2023-10-29T18:53:34.436Z,99815.22
2023-10-29T18:56:01.308Z,99817.00
2023-10-29T18:58:30.374Z,99811.72
2023-10-29T19:01:11.029Z,99817.00
2023-10-29T19:03:38.771Z,99816.13
2023-10-29T19:06:06.317Z,99820.47
2023-10-29T19:08:36.277Z,99825.75
2023-10-29T19:11:06.305Z,99819.63
2023-10-29T19:13:36.319Z,99821.38
2023-10-29T19:16:08.955Z,99823.13
2023-10-29T19:18:38.087Z,99820.53
2023-10-29T19:21:05.054Z,99822.28
2023-10-29T19:23:32.981Z,99817.03
2023-10-29T19:26:03.216Z,99811.81
2023-10-29T19:28:29.844Z,99803.94
2023-10-29T19:31:16.747Z,99800.44
2023-10-29T19:33:43.417Z,99815.28
2023-10-29T19:36:16.886Z,99814.44
2023-10-29T19:38:43.634Z,99813.56
2023-10-29T19:41:12.712Z,99821.41
2023-10-29T19:43:39.359Z,99810.91
2023-10-29T19:46:06.182Z,99822.28
2023-10-29T19:48:32.991Z,99823.16
2023-10-29T19:51:00.520Z,99824.03
2023-10-29T19:53:27.736Z,99822.28
2023-10-29T19:55:57.300Z,99818.81
2023-10-29T19:58:26.486Z,99825.78
2023-10-29T20:00:56.056Z,99822.28
2023-10-29T20:03:22.937Z,99810.91
2023-10-29T20:05:51.790Z,99806.59
2023-10-29T20:08:18.501Z,99803.97
2023-10-29T20:10:45.209Z,99803.94
2023-10-29T20:13:14.393Z,99802.19
2023-10-29T20:15:43.346Z,99803.94
2023-10-29T20:18:10.066Z,99804.81
2023-10-29T20:20:36.886Z,99794.34
2023-10-29T20:23:05.970Z,99784.72
2023-10-29T20:25:32.649Z,99782.97
2023-10-29T20:27:59.336Z,99785.56
2023-10-29T20:30:25.977Z,99790.81
2023-10-29T20:32:52.909Z,99805.66
2023-10-29T20:35:19.834Z,99815.22
2023-10-29T20:37:46.996Z,99812.59
2023-10-29T20:40:14.440Z,99826.56
2023-10-29T20:42:41.134Z,99821.31
2023-10-29T20:45:08.050Z,99816.94
2023-10-29T20:47:34.805Z,99806.47
2023-10-29T20:50:06.412Z,99809.97
2023-10-29T20:52:33.796Z,99810.81
2023-10-29T20:55:00.653Z,99817.81
2023-10-29T20:57:29.819Z,99815.19
2023-10-29T20:59:59.094Z,99815.19
2023-10-29T21:02:25.986Z,99813.41
2023-10-29T21:04:58.607Z,99810.81
2023-10-29T21:07:27.760Z,99805.56
2023-10-29T21:09:54.493Z,99809.94
2023-10-29T21:12:23.981Z,99802.09
2023-10-29T21:14:52.899Z,99806.44
2023-10-29T21:17:22.490Z,99805.56
2023-10-29T21:19:51.610Z,99814.28
2023-10-29T21:22:22.673Z,99811.66
2023-10-29T21:24:49.751Z,99814.28
2023-10-29T21:27:16.554Z,99817.78
2023-10-29T21:29:48.618Z,99813.41
2023-10-29T21:32:15.456Z,99819.53
2023-10-29T21:34:42.134Z,99820.38
2023-10-29T21:37:08.825Z,99825.63
2023-10-29T21:39:35.514Z,99823.88
2023-10-29T21:42:02.251Z,99829.09
2023-10-29T21:44:28.987Z,99825.59
2023-10-29T21:46:58.069Z,99819.50
2023-10-29T21:49:25.105Z,99819.50
2023-10-29T21:51:51.737Z,99819.50
2023-10-29T21:54:18.819Z,99831.69
2023-10-29T21:56:48.388Z,99828.22
2023-10-29T21:59:15.026Z,99831.69
2023-10-29T22:01:44.777Z,99826.47
2023-10-29T22:04:11.657Z,99822.97
2023-10-29T22:06:41.492Z,99818.63
2023-10-29T22:09:10.709Z,99825.59
2023-10-29T22:11:37.367Z,99820.41
2023-10-29T22:14:03.962Z,99830.00
2023-10-29T22:16:30.698Z,99823.91
2023-10-29T22:18:57.461Z,99822.19
2023-10-29T22:21:24.125Z,99823.06
2023-10-29T22:23:50.867Z,99826.56
2023-10-29T22:26:17.427Z,99814.34
2023-10-29T22:28:46.451Z,99808.25
2023-10-29T22:31:15.223Z,99813.47
2023-10-29T22:33:43.183Z,99810.84
2023-10-29T22:36:09.909Z,99809.09
2023-10-29T22:38:36.742Z,99816.09
2023-10-29T22:41:04.457Z,99813.47
2023-10-29T22:43:31.664Z,99824.81
2023-10-29T22:46:00.740Z,99815.22
2023-10-29T22:48:27.642Z,99818.72
2023-10-29T22:50:54.665Z,99819.56
2023-10-29T22:53:26.724Z,99821.31
2023-10-29T22:55:57.901Z,99823.94
2023-10-29T22:58:24.545Z,99826.53
2023-10-29T23:00:52.172Z,99830.88
2023-10-29T23:03:19.599Z,99821.28
2023-10-29T23:05:46.494Z,99819.50
2023-10-29T23:08:18.186Z,99818.66
2023-10-29T23:10:47.340Z,99816.88
2023-10-29T23:13:13.968Z,99820.34
2023-10-29T23:15:40.678Z,99820.34
2023-10-29T23:18:07.538Z,99821.22
2023-10-29T23:20:34.258Z,99822.09
2023-10-29T23:23:00.977Z,99824.72
2023-10-29T23:25:27.681Z,99824.72
2023-10-29T23:27:54.336Z,99819.47
2023-10-29T23:30:23.253Z,99816.84
2023-10-29T23:32:52.479Z,99811.63
2023-10-29T23:35:21.663Z,99809.00
2023-10-29T23:37:48.434Z,99815.09
2023-10-29T23:40:15.139Z,99819.47
2023-10-29T23:42:41.793Z,99826.47
2023-10-29T23:45:09.832Z,99827.34
2023-10-29T23:47:36.741Z,99823.84
2023-10-29T23:50:04.160Z,99823.03
2023-10-29T23:52:33.660Z,99826.53
2023-10-29T23:55:00.361Z,99823.03
2023-10-29T23:57:27.892Z,99819.56
2023-10-29T23:59:54.592Z,99824.81
